sensor_id;sensor_type;location;lat;lon;timestamp;P1;durP1;ratioP1;P2;durP2;ratioP2
15398;SDS011;7797;51.428;6.756;2023-02-15T00:01:40;18.50;;;13.53;;
15398;SDS011;7797;51.428;6.756;2023-02-15T00:04:07;19.30;;;13.80;;
15398;SDS011;7797;51.428;6.756;2023-02-15T00:06:34;18.43;;;13.63;;
15398;SDS011;7797;51.428;6.756;2023-02-15T00:09:02;19.40;;;13.87;;
15398;SDS011;7797;51.428;6.756;2023-02-15T00:11:29;18.07;;;13.43;;
15398;SDS011;7797;51.428;6.756;2023-02-15T00:14:12;20.30;;;13.60;;
15398;SDS011;7797;51.428;6.756;2023-02-15T00:16:41;18.47;;;13.67;;
15398;SDS011;7797;51.428;6.756;2023-02-15T00:19:08;19.10;;;13.57;;
15398;SDS011;7797;51.428;6.756;2023-02-15T00:21:36;18.30;;;13.57;;
15398;SDS011;7797;51.428;6.756;2023-02-15T00:24:04;20.33;;;13.77;;
15398;SDS011;7797;51.428;6.756;2023-02-15T00:26:32;22.23;;;14.07;;
15398;SDS011;7797;51.428;6.756;2023-02-15T00:28:59;19.80;;;13.60;;
15398;SDS011;7797;51.428;6.756;2023-02-15T00:31:27;21.40;;;14.40;;
15398;SDS011;7797;51.428;6.756;2023-02-15T00:36:48;20.37;;;14.40;;
15398;SDS011;7797;51.428;6.756;2023-02-15T00:39:15;19.20;;;13.73;;
15398;SDS011;7797;51.428;6.756;2023-02-15T00:41:43;19.80;;;14.33;;
15398;SDS011;7797;51.428;6.756;2023-02-15T00:44:10;19.10;;;14.00;;
15398;SDS011;7797;51.428;6.756;2023-02-15T00:46:36;19.47;;;14.30;;
15398;SDS011;7797;51.428;6.756;2023-02-15T00:49:04;19.33;;;13.67;;
15398;SDS011;7797;51.428;6.756;2023-02-15T00:51:33;21.23;;;14.40;;
15398;SDS011;7797;51.428;6.756;2023-02-15T00:54:00;20.47;;;13.77;;
15398;SDS011;7797;51.428;6.756;2023-02-15T00:56:26;19.00;;;14.00;;
15398;SDS011;7797;51.428;6.756;2023-02-15T00:58:54;20.70;;;14.57;;
15398;SDS011;7797;51.428;6.756;2023-02-15T01:01:21;18.60;;;13.77;;
15398;SDS011;7797;51.428;6.756;2023-02-15T01:03:48;17.53;;;13.23;;
15398;SDS011;7797;51.428;6.756;2023-02-15T01:06:15;19.80;;;13.93;;
15398;SDS011;7797;51.428;6.756;2023-02-15T01:08:43;22.17;;;14.57;;
15398;SDS011;7797;51.428;6.756;2023-02-15T01:11:11;19.53;;;14.23;;
15398;SDS011;7797;51.428;6.756;2023-02-15T01:13:40;19.63;;;13.83;;
15398;SDS011;7797;51.428;6.756;2023-02-15T01:16:07;20.10;;;13.83;;
15398;SDS011;7797;51.428;6.756;2023-02-15T01:18:34;22.10;;;14.80;;
15398;SDS011;7797;51.428;6.756;2023-02-15T01:21:08;20.77;;;14.50;;
15398;SDS011;7797;51.428;6.756;2023-02-15T01:23:40;22.73;;;14.37;;
15398;SDS011;7797;51.428;6.756;2023-02-15T01:26:08;21.17;;;14.80;;
15398;SDS011;7797;51.428;6.756;2023-02-15T01:28:36;21.87;;;14.57;;
15398;SDS011;7797;51.428;6.756;2023-02-15T01:31:10;19.03;;;14.40;;
15398;SDS011;7797;51.428;6.756;2023-02-15T01:33:38;21.20;;;14.90;;
15398;SDS011;7797;51.428;6.756;2023-02-15T01:36:05;19.97;;;15.20;;
15398;SDS011;7797;51.428;6.756;2023-02-15T01:38:32;21.57;;;14.70;;
15398;SDS011;7797;51.428;6.756;2023-02-15T01:40:59;19.87;;;14.83;;
15398;SDS011;7797;51.428;6.756;2023-02-15T01:43:46;21.00;;;14.80;;
15398;SDS011;7797;51.428;6.756;2023-02-15T01:46:14;19.53;;;14.60;;
15398;SDS011;7797;51.428;6.756;2023-02-15T01:48:54;24.67;;;16.07;;
15398;SDS011;7797;51.428;6.756;2023-02-15T01:51:25;23.30;;;16.27;;
15398;SDS011;7797;51.428;6.756;2023-02-15T01:53:56;20.80;;;15.30;;
15398;SDS011;7797;51.428;6.756;2023-02-15T01:56:29;22.13;;;14.97;;
15398;SDS011;7797;51.428;6.756;2023-02-15T01:58:58;22.27;;;14.93;;
15398;SDS011;7797;51.428;6.756;2023-02-15T02:01:26;22.87;;;15.60;;
15398;SDS011;7797;51.428;6.756;2023-02-15T02:04:38;21.87;;;15.43;;
15398;SDS011;7797;51.428;6.756;2023-02-15T02:06:44;20.93;;;15.03;;
15398;SDS011;7797;51.428;6.756;2023-02-15T02:09:13;19.63;;;14.90;;
15398;SDS011;7797;51.428;6.756;2023-02-15T02:11:39;22.27;;;14.90;;
15398;SDS011;7797;51.428;6.756;2023-02-15T02:14:06;19.80;;;14.73;;
15398;SDS011;7797;51.428;6.756;2023-02-15T02:36:00;23.17;;;16.50;;
15398;SDS011;7797;51.428;6.756;2023-02-15T02:46:46;20.17;;;14.20;;
15398;SDS011;7797;51.428;6.756;2023-02-15T02:55:10;22.97;;;15.60;;
15398;SDS011;7797;51.428;6.756;2023-02-15T02:57:48;22.93;;;15.77;;
15398;SDS011;7797;51.428;6.756;2023-02-15T03:00:23;20.30;;;15.00;;
15398;SDS011;7797;51.428;6.756;2023-02-15T03:02:54;21.47;;;14.43;;
15398;SDS011;7797;51.428;6.756;2023-02-15T03:05:26;21.37;;;15.33;;
15398;SDS011;7797;51.428;6.756;2023-02-15T03:07:54;24.10;;;16.07;;
15398;SDS011;7797;51.428;6.756;2023-02-15T03:10:23;21.80;;;15.07;;
15398;SDS011;7797;51.428;6.756;2023-02-15T03:12:50;22.50;;;15.63;;
15398;SDS011;7797;51.428;6.756;2023-02-15T03:15:22;22.73;;;16.10;;
15398;SDS011;7797;51.428;6.756;2023-02-15T03:17:55;21.73;;;15.83;;
15398;SDS011;7797;51.428;6.756;2023-02-15T03:20:26;20.80;;;14.97;;
15398;SDS011;7797;51.428;6.756;2023-02-15T03:22:57;22.20;;;14.47;;
15398;SDS011;7797;51.428;6.756;2023-02-15T03:25:34;22.43;;;15.10;;
15398;SDS011;7797;51.428;6.756;2023-02-15T03:28:06;22.20;;;15.73;;
15398;SDS011;7797;51.428;6.756;2023-02-15T03:30:35;21.57;;;15.40;;
15398;SDS011;7797;51.428;6.756;2023-02-15T03:33:03;22.30;;;15.77;;
15398;SDS011;7797;51.428;6.756;2023-02-15T03:35:33;23.27;;;16.10;;
15398;SDS011;7797;51.428;6.756;2023-02-15T03:38:11;22.97;;;15.40;;
15398;SDS011;7797;51.428;6.756;2023-02-15T03:40:41;24.03;;;16.80;;
15398;SDS011;7797;51.428;6.756;2023-02-15T03:45:59;22.97;;;15.43;;
15398;SDS011;7797;51.428;6.756;2023-02-15T03:48:39;24.43;;;15.83;;
15398;SDS011;7797;51.428;6.756;2023-02-15T03:51:26;22.73;;;16.20;;
15398;SDS011;7797;51.428;6.756;2023-02-15T03:54:11;24.13;;;16.03;;
15398;SDS011;7797;51.428;6.756;2023-02-15T03:56:40;22.43;;;15.80;;
15398;SDS011;7797;51.428;6.756;2023-02-15T03:59:07;21.03;;;15.67;;
15398;SDS011;7797;51.428;6.756;2023-02-15T04:02:03;23.77;;;16.40;;
15398;SDS011;7797;51.428;6.756;2023-02-15T04:04:33;22.90;;;15.37;;
15398;SDS011;7797;51.428;6.756;2023-02-15T04:07:06;22.07;;;16.03;;
15398;SDS011;7797;51.428;6.756;2023-02-15T04:09:33;22.23;;;15.70;;
15398;SDS011;7797;51.428;6.756;2023-02-15T04:12:18;23.10;;;15.33;;
15398;SDS011;7797;51.428;6.756;2023-02-15T04:14:45;22.50;;;16.07;;
15398;SDS011;7797;51.428;6.756;2023-02-15T04:17:30;22.17;;;16.03;;
15398;SDS011;7797;51.428;6.756;2023-02-15T04:19:57;22.97;;;16.27;;
15398;SDS011;7797;51.428;6.756;2023-02-15T04:22:47;23.20;;;15.80;;
15398;SDS011;7797;51.428;6.756;2023-02-15T04:25:32;23.87;;;16.13;;
15398;SDS011;7797;51.428;6.756;2023-02-15T04:27:59;23.27;;;15.70;;
15398;SDS011;7797;51.428;6.756;2023-02-15T04:30:25;21.80;;;15.27;;
15398;SDS011;7797;51.428;6.756;2023-02-15T04:32:53;19.80;;;14.93;;
15398;SDS011;7797;51.428;6.756;2023-02-15T04:35:21;23.33;;;16.07;;
15398;SDS011;7797;51.428;6.756;2023-02-15T04:37:48;24.73;;;16.77;;
15398;SDS011;7797;51.428;6.756;2023-02-15T04:40:15;23.07;;;16.13;;
15398;SDS011;7797;51.428;6.756;2023-02-15T04:42:46;27.47;;;15.83;;
15398;SDS011;7797;51.428;6.756;2023-02-15T04:45:14;23.40;;;15.77;;
15398;SDS011;7797;51.428;6.756;2023-02-15T04:47:41;25.20;;;16.53;;
15398;SDS011;7797;51.428;6.756;2023-02-15T04:50:07;22.97;;;15.60;;
15398;SDS011;7797;51.428;6.756;2023-02-15T04:52:34;22.67;;;16.20;;
15398;SDS011;7797;51.428;6.756;2023-02-15T04:55:01;23.57;;;16.00;;
15398;SDS011;7797;51.428;6.756;2023-02-15T04:57:28;21.97;;;15.50;;
15398;SDS011;7797;51.428;6.756;2023-02-15T04:59:54;24.63;;;15.90;;
15398;SDS011;7797;51.428;6.756;2023-02-15T05:02:21;22.80;;;16.10;;
15398;SDS011;7797;51.428;6.756;2023-02-15T05:04:48;23.10;;;15.63;;
15398;SDS011;7797;51.428;6.756;2023-02-15T05:07:15;25.27;;;16.43;;
15398;SDS011;7797;51.428;6.756;2023-02-15T05:09:41;23.00;;;16.37;;
15398;SDS011;7797;51.428;6.756;2023-02-15T05:12:08;22.73;;;15.63;;
15398;SDS011;7797;51.428;6.756;2023-02-15T05:14:35;23.30;;;16.23;;
15398;SDS011;7797;51.428;6.756;2023-02-15T05:17:01;24.90;;;16.50;;
15398;SDS011;7797;51.428;6.756;2023-02-15T05:19:29;22.83;;;15.53;;
15398;SDS011;7797;51.428;6.756;2023-02-15T05:21:56;25.30;;;16.30;;
15398;SDS011;7797;51.428;6.756;2023-02-15T05:24:22;22.83;;;15.73;;
15398;SDS011;7797;51.428;6.756;2023-02-15T05:27:10;23.70;;;16.03;;
15398;SDS011;7797;51.428;6.756;2023-02-15T05:29:55;23.43;;;15.90;;
15398;SDS011;7797;51.428;6.756;2023-02-15T05:32:22;24.90;;;16.47;;
15398;SDS011;7797;51.428;6.756;2023-02-15T05:34:49;23.83;;;16.37;;
15398;SDS011;7797;51.428;6.756;2023-02-15T05:37:16;22.47;;;16.03;;
15398;SDS011;7797;51.428;6.756;2023-02-15T05:39:42;24.47;;;16.40;;
15398;SDS011;7797;51.428;6.756;2023-02-15T05:42:10;23.10;;;15.77;;
15398;SDS011;7797;51.428;6.756;2023-02-15T05:44:37;24.87;;;16.23;;
15398;SDS011;7797;51.428;6.756;2023-02-15T05:47:03;21.87;;;15.37;;
15398;SDS011;7797;51.428;6.756;2023-02-15T05:49:33;22.70;;;16.33;;
15398;SDS011;7797;51.428;6.756;2023-02-15T05:52:00;23.50;;;16.53;;
15398;SDS011;7797;51.428;6.756;2023-02-15T05:54:27;26.17;;;16.40;;
15398;SDS011;7797;51.428;6.756;2023-02-15T05:56:54;24.83;;;16.87;;
15398;SDS011;7797;51.428;6.756;2023-02-15T05:59:21;26.90;;;16.27;;
15398;SDS011;7797;51.428;6.756;2023-02-15T06:01:48;26.03;;;16.93;;
15398;SDS011;7797;51.428;6.756;2023-02-15T06:04:14;24.00;;;16.13;;
15398;SDS011;7797;51.428;6.756;2023-02-15T06:06:41;24.60;;;16.03;;
15398;SDS011;7797;51.428;6.756;2023-02-15T06:09:07;25.80;;;16.23;;
15398;SDS011;7797;51.428;6.756;2023-02-15T06:11:34;24.80;;;16.30;;
15398;SDS011;7797;51.428;6.756;2023-02-15T06:14:01;23.03;;;15.60;;
15398;SDS011;7797;51.428;6.756;2023-02-15T06:16:27;24.67;;;17.60;;
15398;SDS011;7797;51.428;6.756;2023-02-15T06:18:54;23.60;;;16.33;;
15398;SDS011;7797;51.428;6.756;2023-02-15T06:21:21;23.10;;;15.73;;
15398;SDS011;7797;51.428;6.756;2023-02-15T06:23:47;24.13;;;16.37;;
15398;SDS011;7797;51.428;6.756;2023-02-15T06:26:14;25.30;;;16.37;;
15398;SDS011;7797;51.428;6.756;2023-02-15T06:28:41;23.70;;;16.30;;
15398;SDS011;7797;51.428;6.756;2023-02-15T06:31:07;26.30;;;16.27;;
15398;SDS011;7797;51.428;6.756;2023-02-15T06:33:34;24.17;;;16.10;;
15398;SDS011;7797;51.428;6.756;2023-02-15T06:36:01;23.80;;;17.00;;
15398;SDS011;7797;51.428;6.756;2023-02-15T06:38:30;25.53;;;16.10;;
15398;SDS011;7797;51.428;6.756;2023-02-15T06:40:57;29.40;;;17.30;;
15398;SDS011;7797;51.428;6.756;2023-02-15T06:43:24;24.00;;;15.17;;
15398;SDS011;7797;51.428;6.756;2023-02-15T06:45:50;22.93;;;15.93;;
15398;SDS011;7797;51.428;6.756;2023-02-15T06:48:22;24.70;;;16.60;;
15398;SDS011;7797;51.428;6.756;2023-02-15T06:50:49;26.40;;;17.17;;
15398;SDS011;7797;51.428;6.756;2023-02-15T06:53:16;21.33;;;15.17;;
15398;SDS011;7797;51.428;6.756;2023-02-15T06:55:42;25.63;;;16.63;;
15398;SDS011;7797;51.428;6.756;2023-02-15T06:58:09;24.13;;;16.53;;
15398;SDS011;7797;51.428;6.756;2023-02-15T07:00:36;27.17;;;16.33;;
15398;SDS011;7797;51.428;6.756;2023-02-15T07:03:09;24.67;;;14.83;;
15398;SDS011;7797;51.428;6.756;2023-02-15T07:05:35;24.83;;;16.70;;
15398;SDS011;7797;51.428;6.756;2023-02-15T07:08:02;24.77;;;16.37;;
15398;SDS011;7797;51.428;6.756;2023-02-15T07:10:29;25.23;;;16.50;;
15398;SDS011;7797;51.428;6.756;2023-02-15T07:12:56;23.10;;;15.93;;
15398;SDS011;7797;51.428;6.756;2023-02-15T07:15:22;24.73;;;16.27;;
15398;SDS011;7797;51.428;6.756;2023-02-15T07:17:50;22.63;;;15.53;;
15398;SDS011;7797;51.428;6.756;2023-02-15T07:20:21;25.00;;;16.33;;
15398;SDS011;7797;51.428;6.756;2023-02-15T07:22:49;22.17;;;15.07;;
15398;SDS011;7797;51.428;6.756;2023-02-15T07:25:16;23.70;;;15.07;;
15398;SDS011;7797;51.428;6.756;2023-02-15T07:27:43;23.80;;;15.60;;
15398;SDS011;7797;51.428;6.756;2023-02-15T07:30:11;22.23;;;15.07;;
15398;SDS011;7797;51.428;6.756;2023-02-15T07:32:40;22.27;;;15.77;;
15398;SDS011;7797;51.428;6.756;2023-02-15T07:35:30;23.40;;;15.37;;
15398;SDS011;7797;51.428;6.756;2023-02-15T07:37:57;20.97;;;14.77;;
15398;SDS011;7797;51.428;6.756;2023-02-15T07:40:23;25.93;;;15.33;;
15398;SDS011;7797;51.428;6.756;2023-02-15T07:42:51;24.73;;;15.50;;
15398;SDS011;7797;51.428;6.756;2023-02-15T07:45:21;22.17;;;14.90;;
15398;SDS011;7797;51.428;6.756;2023-02-15T07:47:47;22.53;;;14.93;;
15398;SDS011;7797;51.428;6.756;2023-02-15T07:50:14;22.03;;;14.97;;
15398;SDS011;7797;51.428;6.756;2023-02-15T07:52:41;23.20;;;15.17;;
15398;SDS011;7797;51.428;6.756;2023-02-15T07:55:07;25.17;;;15.97;;
15398;SDS011;7797;51.428;6.756;2023-02-15T07:57:35;21.33;;;14.60;;
15398;SDS011;7797;51.428;6.756;2023-02-15T08:00:02;22.03;;;15.20;;
15398;SDS011;7797;51.428;6.756;2023-02-15T08:02:29;22.43;;;14.70;;
15398;SDS011;7797;51.428;6.756;2023-02-15T08:04:56;23.13;;;15.93;;
15398;SDS011;7797;51.428;6.756;2023-02-15T08:07:23;22.70;;;15.20;;
15398;SDS011;7797;51.428;6.756;2023-02-15T08:09:49;20.17;;;15.33;;
15398;SDS011;7797;51.428;6.756;2023-02-15T08:12:18;24.33;;;15.43;;
15398;SDS011;7797;51.428;6.756;2023-02-15T08:14:45;20.33;;;14.53;;
15398;SDS011;7797;51.428;6.756;2023-02-15T08:17:11;20.50;;;13.83;;
15398;SDS011;7797;51.428;6.756;2023-02-15T08:19:38;21.47;;;14.40;;
15398;SDS011;7797;51.428;6.756;2023-02-15T08:22:06;25.57;;;14.80;;
15398;SDS011;7797;51.428;6.756;2023-02-15T08:24:39;22.40;;;14.53;;
15398;SDS011;7797;51.428;6.756;2023-02-15T08:27:08;23.43;;;14.97;;
15398;SDS011;7797;51.428;6.756;2023-02-15T08:29:36;22.17;;;14.50;;
15398;SDS011;7797;51.428;6.756;2023-02-15T08:32:05;23.27;;;15.10;;
15398;SDS011;7797;51.428;6.756;2023-02-15T08:34:35;19.27;;;13.97;;
15398;SDS011;7797;51.428;6.756;2023-02-15T08:37:04;22.50;;;14.73;;
15398;SDS011;7797;51.428;6.756;2023-02-15T08:39:32;22.03;;;13.47;;
15398;SDS011;7797;51.428;6.756;2023-02-15T08:41:59;20.17;;;14.67;;
15398;SDS011;7797;51.428;6.756;2023-02-15T08:44:26;21.40;;;14.37;;
15398;SDS011;7797;51.428;6.756;2023-02-15T08:46:53;21.53;;;14.07;;
15398;SDS011;7797;51.428;6.756;2023-02-15T08:49:21;22.67;;;14.67;;
15398;SDS011;7797;51.428;6.756;2023-02-15T08:51:48;22.77;;;14.80;;
15398;SDS011;7797;51.428;6.756;2023-02-15T08:54:16;21.27;;;13.70;;
15398;SDS011;7797;51.428;6.756;2023-02-15T08:56:44;20.47;;;14.13;;
15398;SDS011;7797;51.428;6.756;2023-02-15T08:59:16;22.80;;;14.73;;
15398;SDS011;7797;51.428;6.756;2023-02-15T09:01:44;20.33;;;13.43;;
15398;SDS011;7797;51.428;6.756;2023-02-15T09:04:12;17.77;;;13.20;;
15398;SDS011;7797;51.428;6.756;2023-02-15T09:06:39;17.83;;;12.93;;
15398;SDS011;7797;51.428;6.756;2023-02-15T09:09:07;19.47;;;13.43;;
15398;SDS011;7797;51.428;6.756;2023-02-15T09:11:43;20.47;;;13.60;;
15398;SDS011;7797;51.428;6.756;2023-02-15T09:14:16;19.80;;;12.87;;
15398;SDS011;7797;51.428;6.756;2023-02-15T09:16:45;18.67;;;12.77;;
15398;SDS011;7797;51.428;6.756;2023-02-15T09:19:15;20.93;;;12.97;;
15398;SDS011;7797;51.428;6.756;2023-02-15T09:21:43;18.03;;;12.80;;
15398;SDS011;7797;51.428;6.756;2023-02-15T09:24:11;19.77;;;13.23;;
15398;SDS011;7797;51.428;6.756;2023-02-15T09:26:39;19.17;;;13.37;;
15398;SDS011;7797;51.428;6.756;2023-02-15T09:29:09;19.30;;;12.60;;
15398;SDS011;7797;51.428;6.756;2023-02-15T09:31:37;19.03;;;13.77;;
15398;SDS011;7797;51.428;6.756;2023-02-15T09:34:12;18.50;;;12.37;;
15398;SDS011;7797;51.428;6.756;2023-02-15T09:36:40;18.67;;;12.70;;
15398;SDS011;7797;51.428;6.756;2023-02-15T09:50:15;17.67;;;12.40;;
15398;SDS011;7797;51.428;6.756;2023-02-15T09:53:13;18.40;;;11.73;;
15398;SDS011;7797;51.428;6.756;2023-02-15T09:58:47;17.80;;;11.63;;
15398;SDS011;7797;51.428;6.756;2023-02-15T10:17:54;17.67;;;12.07;;
15398;SDS011;7797;51.428;6.756;2023-02-15T10:26:19;16.97;;;11.50;;
15398;SDS011;7797;51.428;6.756;2023-02-15T10:28:55;14.70;;;11.17;;
15398;SDS011;7797;51.428;6.756;2023-02-15T10:31:27;17.07;;;11.07;;
15398;SDS011;7797;51.428;6.756;2023-02-15T10:34:08;17.33;;;11.67;;
15398;SDS011;7797;51.428;6.756;2023-02-15T10:42:16;17.67;;;12.07;;
15398;SDS011;7797;51.428;6.756;2023-02-15T10:56:20;14.67;;;10.73;;
15398;SDS011;7797;51.428;6.756;2023-02-15T10:59:06;15.37;;;10.80;;
15398;SDS011;7797;51.428;6.756;2023-02-15T11:01:55;17.00;;;11.77;;
15398;SDS011;7797;51.428;6.756;2023-02-15T11:06:57;19.73;;;11.80;;
15398;SDS011;7797;51.428;6.756;2023-02-15T11:09:29;17.67;;;11.20;;
15398;SDS011;7797;51.428;6.756;2023-02-15T11:12:02;18.57;;;10.60;;
15398;SDS011;7797;51.428;6.756;2023-02-15T11:14:42;13.27;;;10.57;;
15398;SDS011;7797;51.428;6.756;2023-02-15T11:17:19;18.13;;;11.50;;
15398;SDS011;7797;51.428;6.756;2023-02-15T11:22:34;17.23;;;10.87;;
15398;SDS011;7797;51.428;6.756;2023-02-15T11:25:01;16.77;;;11.00;;
15398;SDS011;7797;51.428;6.756;2023-02-15T11:27:30;13.93;;;10.10;;
15398;SDS011;7797;51.428;6.756;2023-02-15T11:30:09;15.17;;;11.13;;
15398;SDS011;7797;51.428;6.756;2023-02-15T11:32:40;15.93;;;11.37;;
15398;SDS011;7797;51.428;6.756;2023-02-15T11:40:17;15.20;;;10.43;;
15398;SDS011;7797;51.428;6.756;2023-02-15T11:42:46;15.23;;;10.90;;
15398;SDS011;7797;51.428;6.756;2023-02-15T11:45:19;13.57;;;9.83;;
15398;SDS011;7797;51.428;6.756;2023-02-15T11:47:57;14.20;;;9.90;;
15398;SDS011;7797;51.428;6.756;2023-02-15T11:50:31;15.47;;;10.67;;
15398;SDS011;7797;51.428;6.756;2023-02-15T11:53:00;15.40;;;10.63;;
15398;SDS011;7797;51.428;6.756;2023-02-15T11:55:28;14.77;;;10.53;;
15398;SDS011;7797;51.428;6.756;2023-02-15T11:58:01;16.00;;;10.50;;
15398;SDS011;7797;51.428;6.756;2023-02-15T12:00:40;15.13;;;10.73;;
15398;SDS011;7797;51.428;6.756;2023-02-15T12:03:09;14.87;;;10.37;;
15398;SDS011;7797;51.428;6.756;2023-02-15T12:05:40;16.50;;;11.27;;
15398;SDS011;7797;51.428;6.756;2023-02-15T12:08:14;14.40;;;10.70;;
15398;SDS011;7797;51.428;6.756;2023-02-15T12:11:00;16.30;;;10.37;;
15398;SDS011;7797;51.428;6.756;2023-02-15T12:13:30;15.13;;;10.43;;
15398;SDS011;7797;51.428;6.756;2023-02-15T12:15:57;13.30;;;10.30;;
15398;SDS011;7797;51.428;6.756;2023-02-15T12:21:07;14.20;;;10.00;;
15398;SDS011;7797;51.428;6.756;2023-02-15T12:23:39;14.20;;;10.30;;
15398;SDS011;7797;51.428;6.756;2023-02-15T12:26:34;15.57;;;10.23;;
15398;SDS011;7797;51.428;6.756;2023-02-15T12:29:01;17.13;;;10.20;;
15398;SDS011;7797;51.428;6.756;2023-02-15T12:31:36;13.93;;;9.47;;
15398;SDS011;7797;51.428;6.756;2023-02-15T12:34:19;15.30;;;9.43;;
15398;SDS011;7797;51.428;6.756;2023-02-15T12:36:49;13.10;;;9.27;;
15398;SDS011;7797;51.428;6.756;2023-02-15T12:39:21;13.67;;;9.60;;
15398;SDS011;7797;51.428;6.756;2023-02-15T12:49:31;14.90;;;9.90;;
15398;SDS011;7797;51.428;6.756;2023-02-15T12:54:44;14.13;;;9.90;;
15398;SDS011;7797;51.428;6.756;2023-02-15T12:57:17;16.63;;;10.30;;
15398;SDS011;7797;51.428;6.756;2023-02-15T12:59:52;17.83;;;10.40;;
15398;SDS011;7797;51.428;6.756;2023-02-15T13:02:21;15.37;;;10.23;;
15398;SDS011;7797;51.428;6.756;2023-02-15T13:07:36;12.00;;;9.23;;
15398;SDS011;7797;51.428;6.756;2023-02-15T13:10:03;14.90;;;9.97;;
15398;SDS011;7797;51.428;6.756;2023-02-15T13:12:30;16.13;;;10.43;;
15398;SDS011;7797;51.428;6.756;2023-02-15T13:14:58;15.77;;;9.90;;
15398;SDS011;7797;51.428;6.756;2023-02-15T13:17:29;14.70;;;9.60;;
15398;SDS011;7797;51.428;6.756;2023-02-15T13:19:59;14.27;;;10.53;;
15398;SDS011;7797;51.428;6.756;2023-02-15T13:22:35;13.13;;;9.07;;
15398;SDS011;7797;51.428;6.756;2023-02-15T13:25:13;14.50;;;9.83;;
15398;SDS011;7797;51.428;6.756;2023-02-15T13:27:43;14.03;;;9.77;;
15398;SDS011;7797;51.428;6.756;2023-02-15T13:32:52;14.53;;;10.10;;
15398;SDS011;7797;51.428;6.756;2023-02-15T13:35:29;14.23;;;9.77;;
15398;SDS011;7797;51.428;6.756;2023-02-15T13:41:11;14.20;;;9.73;;
15398;SDS011;7797;51.428;6.756;2023-02-15T13:43:49;14.00;;;9.57;;
15398;SDS011;7797;51.428;6.756;2023-02-15T13:46:43;14.00;;;8.90;;
15398;SDS011;7797;51.428;6.756;2023-02-15T14:16:32;14.90;;;10.57;;
15398;SDS011;7797;51.428;6.756;2023-02-15T14:19:15;14.43;;;9.87;;
15398;SDS011;7797;51.428;6.756;2023-02-15T14:24:32;12.57;;;9.27;;
15398;SDS011;7797;51.428;6.756;2023-02-15T14:27:16;15.43;;;9.87;;
15398;SDS011;7797;51.428;6.756;2023-02-15T14:29:58;17.00;;;9.60;;
15398;SDS011;7797;51.428;6.756;2023-02-15T14:32:30;19.23;;;10.93;;
15398;SDS011;7797;51.428;6.756;2023-02-15T14:35:02;17.97;;;10.33;;
15398;SDS011;7797;51.428;6.756;2023-02-15T14:46:00;15.97;;;10.03;;
15398;SDS011;7797;51.428;6.756;2023-02-15T14:48:30;21.27;;;10.60;;
15398;SDS011;7797;51.428;6.756;2023-02-15T14:51:01;17.90;;;9.83;;
15398;SDS011;7797;51.428;6.756;2023-02-15T14:58:37;17.63;;;10.30;;
15398;SDS011;7797;51.428;6.756;2023-02-15T15:01:12;15.47;;;10.00;;
15398;SDS011;7797;51.428;6.756;2023-02-15T15:03:43;17.77;;;10.33;;
15398;SDS011;7797;51.428;6.756;2023-02-15T15:06:30;17.30;;;10.23;;
15398;SDS011;7797;51.428;6.756;2023-02-15T15:09:00;14.53;;;10.03;;
15398;SDS011;7797;51.428;6.756;2023-02-15T15:11:43;18.67;;;11.10;;
15398;SDS011;7797;51.428;6.756;2023-02-15T15:17:02;17.10;;;10.27;;
15398;SDS011;7797;51.428;6.756;2023-02-15T15:30:49;17.30;;;10.27;;
15398;SDS011;7797;51.428;6.756;2023-02-15T15:43:21;13.37;;;9.53;;
15398;SDS011;7797;51.428;6.756;2023-02-15T15:48:33;14.83;;;9.37;;
15398;SDS011;7797;51.428;6.756;2023-02-15T15:51:06;16.23;;;10.03;;
15398;SDS011;7797;51.428;6.756;2023-02-15T15:53:39;16.63;;;9.63;;
15398;SDS011;7797;51.428;6.756;2023-02-15T15:56:13;17.60;;;9.47;;
15398;SDS011;7797;51.428;6.756;2023-02-15T15:58:53;11.93;;;9.07;;
15398;SDS011;7797;51.428;6.756;2023-02-15T16:01:26;17.40;;;10.47;;
15398;SDS011;7797;51.428;6.756;2023-02-15T16:03:57;17.17;;;10.10;;
15398;SDS011;7797;51.428;6.756;2023-02-15T16:06:29;18.37;;;9.97;;
15398;SDS011;7797;51.428;6.756;2023-02-15T16:09:10;17.30;;;9.87;;
15398;SDS011;7797;51.428;6.756;2023-02-15T16:11:37;16.30;;;10.10;;
15398;SDS011;7797;51.428;6.756;2023-02-15T16:14:11;18.33;;;10.93;;
15398;SDS011;7797;51.428;6.756;2023-02-15T16:16:40;15.57;;;10.73;;
15398;SDS011;7797;51.428;6.756;2023-02-15T16:19:14;16.40;;;10.50;;
15398;SDS011;7797;51.428;6.756;2023-02-15T16:21:46;15.87;;;10.83;;
15398;SDS011;7797;51.428;6.756;2023-02-15T16:26:59;19.27;;;11.37;;
15398;SDS011;7797;51.428;6.756;2023-02-15T16:29:31;16.83;;;11.20;;
15398;SDS011;7797;51.428;6.756;2023-02-15T16:32:03;14.27;;;10.40;;
15398;SDS011;7797;51.428;6.756;2023-02-15T16:34:32;18.00;;;11.13;;
15398;SDS011;7797;51.428;6.756;2023-02-15T16:37:15;15.63;;;11.00;;
15398;SDS011;7797;51.428;6.756;2023-02-15T16:39:43;20.60;;;11.10;;
15398;SDS011;7797;51.428;6.756;2023-02-15T16:42:11;17.33;;;11.13;;
15398;SDS011;7797;51.428;6.756;2023-02-15T16:44:40;15.60;;;11.77;;
15398;SDS011;7797;51.428;6.756;2023-02-15T16:47:15;17.10;;;11.13;;
15398;SDS011;7797;51.428;6.756;2023-02-15T16:49:45;19.63;;;11.57;;
15398;SDS011;7797;51.428;6.756;2023-02-15T16:52:23;17.37;;;11.00;;
15398;SDS011;7797;51.428;6.756;2023-02-15T16:55:38;15.67;;;11.20;;
15398;SDS011;7797;51.428;6.756;2023-02-15T16:57:49;18.67;;;11.20;;
15398;SDS011;7797;51.428;6.756;2023-02-15T17:00:20;18.27;;;11.60;;
15398;SDS011;7797;51.428;6.756;2023-02-15T17:02:53;23.00;;;12.47;;
15398;SDS011;7797;51.428;6.756;2023-02-15T17:08:10;17.90;;;12.53;;
15398;SDS011;7797;51.428;6.756;2023-02-15T17:10:42;20.17;;;11.77;;
15398;SDS011;7797;51.428;6.756;2023-02-15T17:13:31;17.33;;;11.90;;
15398;SDS011;7797;51.428;6.756;2023-02-15T17:21:13;16.10;;;11.87;;
15398;SDS011;7797;51.428;6.756;2023-02-15T17:23:51;17.23;;;12.00;;
15398;SDS011;7797;51.428;6.756;2023-02-15T17:31:53;18.67;;;12.37;;
15398;SDS011;7797;51.428;6.756;2023-02-15T17:34:43;16.70;;;11.07;;
15398;SDS011;7797;51.428;6.756;2023-02-15T17:40:16;17.97;;;11.93;;
15398;SDS011;7797;51.428;6.756;2023-02-15T17:42:48;17.80;;;12.80;;
15398;SDS011;7797;51.428;6.756;2023-02-15T17:45:15;24.77;;;14.10;;
15398;SDS011;7797;51.428;6.756;2023-02-15T17:47:43;20.50;;;13.80;;
15398;SDS011;7797;51.428;6.756;2023-02-15T17:50:26;20.57;;;13.70;;
15398;SDS011;7797;51.428;6.756;2023-02-15T17:52:54;21.23;;;14.40;;
15398;SDS011;7797;51.428;6.756;2023-02-15T17:55:22;18.40;;;12.93;;
15398;SDS011;7797;51.428;6.756;2023-02-15T17:58:06;16.27;;;11.97;;
15398;SDS011;7797;51.428;6.756;2023-02-15T18:00:45;16.87;;;11.90;;
15398;SDS011;7797;51.428;6.756;2023-02-15T18:03:42;14.23;;;11.73;;
15398;SDS011;7797;51.428;6.756;2023-02-15T18:06:29;17.83;;;11.63;;
15398;SDS011;7797;51.428;6.756;2023-02-15T18:09:16;17.17;;;12.30;;
15398;SDS011;7797;51.428;6.756;2023-02-15T18:12:02;16.13;;;11.60;;
15398;SDS011;7797;51.428;6.756;2023-02-15T18:14:39;13.47;;;10.03;;
15398;SDS011;7797;51.428;6.756;2023-02-15T18:17:05;13.90;;;10.67;;
15398;SDS011;7797;51.428;6.756;2023-02-15T18:19:37;16.13;;;10.40;;
15398;SDS011;7797;51.428;6.756;2023-02-15T18:22:08;16.20;;;10.73;;
15398;SDS011;7797;51.428;6.756;2023-02-15T18:24:37;13.43;;;11.20;;
15398;SDS011;7797;51.428;6.756;2023-02-15T18:27:04;16.90;;;11.23;;
15398;SDS011;7797;51.428;6.756;2023-02-15T18:29:31;16.40;;;10.70;;
15398;SDS011;7797;51.428;6.756;2023-02-15T18:31:58;16.73;;;11.17;;
15398;SDS011;7797;51.428;6.756;2023-02-15T18:34:31;16.27;;;12.20;;